sensor_id;sensor_type;location;lat;lon;timestamp;P1;durP1;ratioP1;P2;durP2;ratioP2
14903;SDS011;7543;53.148;8.234;2022-12-10T00:01:46;34.90;;;10.33;;
14903;SDS011;7543;53.148;8.234;2022-12-10T00:04:15;30.13;;;11.10;;
14903;SDS011;7543;53.148;8.234;2022-12-10T00:06:44;26.10;;;9.70;;
14903;SDS011;7543;53.148;8.234;2022-12-10T00:09:13;24.17;;;10.17;;
14903;SDS011;7543;53.148;8.234;2022-12-10T00:11:42;22.80;;;10.03;;
14903;SDS011;7543;53.148;8.234;2022-12-10T00:14:11;24.33;;;10.03;;
14903;SDS011;7543;53.148;8.234;2022-12-10T00:16:40;24.37;;;10.33;;
14903;SDS011;7543;53.148;8.234;2022-12-10T00:19:08;28.07;;;9.63;;
14903;SDS011;7543;53.148;8.234;2022-12-10T00:21:37;28.33;;;11.10;;
14903;SDS011;7543;53.148;8.234;2022-12-10T00:24:07;23.53;;;9.53;;
14903;SDS011;7543;53.148;8.234;2022-12-10T00:26:36;26.40;;;10.10;;
14903;SDS011;7543;53.148;8.234;2022-12-10T00:29:07;27.63;;;10.47;;
14903;SDS011;7543;53.148;8.234;2022-12-10T00:31:37;25.53;;;9.57;;
14903;SDS011;7543;53.148;8.234;2022-12-10T00:34:07;26.83;;;10.50;;
14903;SDS011;7543;53.148;8.234;2022-12-10T00:36:37;34.00;;;10.40;;
14903;SDS011;7543;53.148;8.234;2022-12-10T00:39:08;21.77;;;10.40;;
14903;SDS011;7543;53.148;8.234;2022-12-10T00:41:36;24.57;;;9.77;;
14903;SDS011;7543;53.148;8.234;2022-12-10T00:44:05;20.17;;;9.50;;
14903;SDS011;7543;53.148;8.234;2022-12-10T00:46:33;24.13;;;10.20;;
14903;SDS011;7543;53.148;8.234;2022-12-10T00:49:02;22.97;;;8.60;;
14903;SDS011;7543;53.148;8.234;2022-12-10T00:51:30;26.70;;;10.93;;
14903;SDS011;7543;53.148;8.234;2022-12-10T00:53:59;27.57;;;10.67;;
14903;SDS011;7543;53.148;8.234;2022-12-10T00:56:29;24.17;;;9.53;;
14903;SDS011;7543;53.148;8.234;2022-12-10T00:58:59;23.80;;;10.20;;
14903;SDS011;7543;53.148;8.234;2022-12-10T01:01:28;23.70;;;10.50;;
14903;SDS011;7543;53.148;8.234;2022-12-10T01:03:59;26.30;;;11.17;;
14903;SDS011;7543;53.148;8.234;2022-12-10T01:06:29;26.30;;;9.50;;
14903;SDS011;7543;53.148;8.234;2022-12-10T01:08:59;25.43;;;9.50;;
14903;SDS011;7543;53.148;8.234;2022-12-10T01:11:30;24.70;;;10.07;;
14903;SDS011;7543;53.148;8.234;2022-12-10T01:14:00;22.47;;;9.13;;
14903;SDS011;7543;53.148;8.234;2022-12-10T01:16:28;28.97;;;10.53;;
14903;SDS011;7543;53.148;8.234;2022-12-10T01:18:57;28.43;;;10.53;;
14903;SDS011;7543;53.148;8.234;2022-12-10T01:21:27;29.13;;;9.33;;
14903;SDS011;7543;53.148;8.234;2022-12-10T01:23:57;21.40;;;10.03;;
14903;SDS011;7543;53.148;8.234;2022-12-10T01:26:27;26.67;;;10.97;;
14903;SDS011;7543;53.148;8.234;2022-12-10T01:28:58;23.83;;;10.20;;
14903;SDS011;7543;53.148;8.234;2022-12-10T01:31:27;23.57;;;10.10;;
14903;SDS011;7543;53.148;8.234;2022-12-10T01:33:58;29.97;;;10.40;;
14903;SDS011;7543;53.148;8.234;2022-12-10T01:36:27;23.17;;;9.40;;
14903;SDS011;7543;53.148;8.234;2022-12-10T01:38:58;29.33;;;10.60;;
14903;SDS011;7543;53.148;8.234;2022-12-10T01:41:27;23.80;;;10.30;;
14903;SDS011;7543;53.148;8.234;2022-12-10T01:43:59;26.23;;;10.67;;
14903;SDS011;7543;53.148;8.234;2022-12-10T01:46:29;26.93;;;9.93;;
14903;SDS011;7543;53.148;8.234;2022-12-10T01:48:59;26.07;;;9.33;;
14903;SDS011;7543;53.148;8.234;2022-12-10T01:51:28;24.97;;;10.43;;
14903;SDS011;7543;53.148;8.234;2022-12-10T01:53:58;27.83;;;11.00;;
14903;SDS011;7543;53.148;8.234;2022-12-10T01:56:26;25.97;;;9.40;;
14903;SDS011;7543;53.148;8.234;2022-12-10T01:58:55;31.70;;;11.23;;
14903;SDS011;7543;53.148;8.234;2022-12-10T02:01:28;24.97;;;10.57;;
14903;SDS011;7543;53.148;8.234;2022-12-10T02:04:03;28.33;;;10.03;;
14903;SDS011;7543;53.148;8.234;2022-12-10T02:06:40;23.07;;;9.60;;
14903;SDS011;7543;53.148;8.234;2022-12-10T02:09:15;32.10;;;11.67;;
14903;SDS011;7543;53.148;8.234;2022-12-10T02:11:53;21.53;;;9.53;;
14903;SDS011;7543;53.148;8.234;2022-12-10T02:14:32;28.53;;;10.87;;
14903;SDS011;7543;53.148;8.234;2022-12-10T02:17:10;25.00;;;10.33;;
14903;SDS011;7543;53.148;8.234;2022-12-10T02:19:52;24.37;;;10.40;;
14903;SDS011;7543;53.148;8.234;2022-12-10T02:22:26;22.33;;;9.70;;
14903;SDS011;7543;53.148;8.234;2022-12-10T02:24:58;21.80;;;10.40;;
14903;SDS011;7543;53.148;8.234;2022-12-10T02:27:30;21.43;;;9.00;;
14903;SDS011;7543;53.148;8.234;2022-12-10T02:30:03;23.50;;;10.87;;
14903;SDS011;7543;53.148;8.234;2022-12-10T02:32:33;24.57;;;10.73;;
14903;SDS011;7543;53.148;8.234;2022-12-10T02:35:05;25.67;;;10.03;;
14903;SDS011;7543;53.148;8.234;2022-12-10T02:37:38;27.43;;;9.93;;
14903;SDS011;7543;53.148;8.234;2022-12-10T02:40:09;36.10;;;11.37;;
14903;SDS011;7543;53.148;8.234;2022-12-10T02:42:44;24.40;;;11.07;;
14903;SDS011;7543;53.148;8.234;2022-12-10T02:45:17;21.77;;;9.40;;
14903;SDS011;7543;53.148;8.234;2022-12-10T02:47:46;27.40;;;10.77;;
14903;SDS011;7543;53.148;8.234;2022-12-10T02:50:16;24.77;;;10.20;;
14903;SDS011;7543;53.148;8.234;2022-12-10T02:52:49;24.90;;;9.50;;
14903;SDS011;7543;53.148;8.234;2022-12-10T02:55:18;30.07;;;11.23;;
14903;SDS011;7543;53.148;8.234;2022-12-10T02:57:53;24.57;;;10.70;;
14903;SDS011;7543;53.148;8.234;2022-12-10T03:00:29;29.60;;;10.30;;
14903;SDS011;7543;53.148;8.234;2022-12-10T03:05:52;26.93;;;11.13;;
14903;SDS011;7543;53.148;8.234;2022-12-10T03:08:26;24.10;;;9.90;;
14903;SDS011;7543;53.148;8.234;2022-12-10T03:10:57;20.40;;;9.13;;
14903;SDS011;7543;53.148;8.234;2022-12-10T03:13:31;23.80;;;10.37;;
14903;SDS011;7543;53.148;8.234;2022-12-10T03:16:05;26.33;;;10.20;;
14903;SDS011;7543;53.148;8.234;2022-12-10T03:18:34;22.53;;;9.77;;
14903;SDS011;7543;53.148;8.234;2022-12-10T03:21:04;26.77;;;10.70;;
14903;SDS011;7543;53.148;8.234;2022-12-10T03:23:35;27.70;;;11.07;;
14903;SDS011;7543;53.148;8.234;2022-12-10T03:26:05;26.17;;;10.90;;
14903;SDS011;7543;53.148;8.234;2022-12-10T03:28:35;29.87;;;12.30;;
14903;SDS011;7543;53.148;8.234;2022-12-10T03:31:08;29.23;;;11.37;;
14903;SDS011;7543;53.148;8.234;2022-12-10T03:33:37;25.63;;;10.40;;
14903;SDS011;7543;53.148;8.234;2022-12-10T03:36:06;26.17;;;10.77;;
14903;SDS011;7543;53.148;8.234;2022-12-10T03:38:35;27.60;;;11.07;;
14903;SDS011;7543;53.148;8.234;2022-12-10T03:41:04;28.37;;;11.43;;
14903;SDS011;7543;53.148;8.234;2022-12-10T03:43:32;24.87;;;10.13;;
14903;SDS011;7543;53.148;8.234;2022-12-10T03:46:00;25.67;;;10.57;;
14903;SDS011;7543;53.148;8.234;2022-12-10T03:48:30;30.20;;;10.80;;
14903;SDS011;7543;53.148;8.234;2022-12-10T03:50:58;26.60;;;10.83;;
14903;SDS011;7543;53.148;8.234;2022-12-10T03:53:26;28.10;;;10.70;;
14903;SDS011;7543;53.148;8.234;2022-12-10T03:55:54;32.87;;;10.83;;
14903;SDS011;7543;53.148;8.234;2022-12-10T03:58:22;26.27;;;11.23;;
14903;SDS011;7543;53.148;8.234;2022-12-10T04:00:51;26.30;;;11.40;;
14903;SDS011;7543;53.148;8.234;2022-12-10T04:03:19;24.13;;;9.93;;
14903;SDS011;7543;53.148;8.234;2022-12-10T04:05:49;27.67;;;11.87;;
14903;SDS011;7543;53.148;8.234;2022-12-10T04:08:17;27.50;;;11.07;;
14903;SDS011;7543;53.148;8.234;2022-12-10T04:10:45;29.57;;;12.43;;
14903;SDS011;7543;53.148;8.234;2022-12-10T04:13:13;22.60;;;11.23;;
14903;SDS011;7543;53.148;8.234;2022-12-10T04:15:59;24.53;;;10.73;;
14903;SDS011;7543;53.148;8.234;2022-12-10T04:18:44;23.63;;;10.77;;
14903;SDS011;7543;53.148;8.234;2022-12-10T04:21:14;27.77;;;11.07;;
14903;SDS011;7543;53.148;8.234;2022-12-10T04:23:59;32.57;;;11.03;;
14903;SDS011;7543;53.148;8.234;2022-12-10T04:26:45;23.60;;;10.73;;
14903;SDS011;7543;53.148;8.234;2022-12-10T04:29:19;26.13;;;10.67;;
14903;SDS011;7543;53.148;8.234;2022-12-10T04:31:48;28.23;;;10.10;;
14903;SDS011;7543;53.148;8.234;2022-12-10T04:34:16;29.90;;;11.37;;
14903;SDS011;7543;53.148;8.234;2022-12-10T04:36:45;26.33;;;11.67;;
14903;SDS011;7543;53.148;8.234;2022-12-10T04:39:14;23.20;;;11.03;;
14903;SDS011;7543;53.148;8.234;2022-12-10T04:41:43;25.00;;;10.20;;
14903;SDS011;7543;53.148;8.234;2022-12-10T04:44:12;26.10;;;10.97;;
14903;SDS011;7543;53.148;8.234;2022-12-10T04:46:40;27.53;;;12.10;;
14903;SDS011;7543;53.148;8.234;2022-12-10T04:49:08;27.03;;;11.40;;
14903;SDS011;7543;53.148;8.234;2022-12-10T04:51:37;22.23;;;9.87;;
14903;SDS011;7543;53.148;8.234;2022-12-10T04:54:06;32.17;;;12.50;;
14903;SDS011;7543;53.148;8.234;2022-12-10T04:56:35;27.93;;;11.33;;
14903;SDS011;7543;53.148;8.234;2022-12-10T04:59:03;22.30;;;11.80;;
14903;SDS011;7543;53.148;8.234;2022-12-10T05:01:31;27.83;;;12.03;;
14903;SDS011;7543;53.148;8.234;2022-12-10T05:04:01;31.20;;;12.07;;
14903;SDS011;7543;53.148;8.234;2022-12-10T05:06:30;25.50;;;11.07;;
14903;SDS011;7543;53.148;8.234;2022-12-10T05:08:59;29.67;;;12.37;;
14903;SDS011;7543;53.148;8.234;2022-12-10T05:11:29;24.90;;;11.33;;
14903;SDS011;7543;53.148;8.234;2022-12-10T05:13:58;23.83;;;10.67;;
14903;SDS011;7543;53.148;8.234;2022-12-10T05:16:27;26.13;;;10.73;;
14903;SDS011;7543;53.148;8.234;2022-12-10T05:18:56;25.43;;;11.13;;
14903;SDS011;7543;53.148;8.234;2022-12-10T05:21:25;23.73;;;10.57;;
14903;SDS011;7543;53.148;8.234;2022-12-10T05:24:16;25.83;;;10.80;;
14903;SDS011;7543;53.148;8.234;2022-12-10T05:26:45;21.03;;;10.17;;
14903;SDS011;7543;53.148;8.234;2022-12-10T05:29:17;28.90;;;11.17;;
14903;SDS011;7543;53.148;8.234;2022-12-10T05:31:46;29.03;;;12.23;;
14903;SDS011;7543;53.148;8.234;2022-12-10T05:34:14;24.27;;;10.77;;
14903;SDS011;7543;53.148;8.234;2022-12-10T05:36:42;25.90;;;12.17;;
14903;SDS011;7543;53.148;8.234;2022-12-10T05:39:11;22.87;;;9.97;;
14903;SDS011;7543;53.148;8.234;2022-12-10T05:41:39;21.20;;;9.97;;
14903;SDS011;7543;53.148;8.234;2022-12-10T05:44:09;31.83;;;12.73;;
14903;SDS011;7543;53.148;8.234;2022-12-10T05:46:38;32.73;;;11.87;;
14903;SDS011;7543;53.148;8.234;2022-12-10T05:49:06;26.93;;;11.67;;
14903;SDS011;7543;53.148;8.234;2022-12-10T05:51:36;23.53;;;10.80;;
14903;SDS011;7543;53.148;8.234;2022-12-10T05:54:05;27.93;;;11.70;;
14903;SDS011;7543;53.148;8.234;2022-12-10T05:56:35;29.73;;;12.53;;
14903;SDS011;7543;53.148;8.234;2022-12-10T05:59:04;28.87;;;12.53;;
14903;SDS011;7543;53.148;8.234;2022-12-10T06:01:34;26.97;;;11.23;;
14903;SDS011;7543;53.148;8.234;2022-12-10T06:04:03;33.30;;;13.50;;
14903;SDS011;7543;53.148;8.234;2022-12-10T06:06:33;34.10;;;13.20;;
14903;SDS011;7543;53.148;8.234;2022-12-10T06:09:02;24.07;;;10.47;;
14903;SDS011;7543;53.148;8.234;2022-12-10T06:11:31;27.37;;;11.37;;
14903;SDS011;7543;53.148;8.234;2022-12-10T06:13:59;29.40;;;10.80;;
14903;SDS011;7543;53.148;8.234;2022-12-10T06:16:28;28.93;;;11.37;;
14903;SDS011;7543;53.148;8.234;2022-12-10T06:18:58;23.87;;;11.40;;
14903;SDS011;7543;53.148;8.234;2022-12-10T06:21:26;26.17;;;11.83;;
14903;SDS011;7543;53.148;8.234;2022-12-10T06:23:54;30.20;;;11.80;;
14903;SDS011;7543;53.148;8.234;2022-12-10T06:26:23;29.10;;;11.50;;
14903;SDS011;7543;53.148;8.234;2022-12-10T06:28:52;27.00;;;11.77;;
14903;SDS011;7543;53.148;8.234;2022-12-10T06:31:21;30.47;;;11.70;;
14903;SDS011;7543;53.148;8.234;2022-12-10T06:33:50;28.73;;;11.50;;
14903;SDS011;7543;53.148;8.234;2022-12-10T06:36:19;33.30;;;12.87;;
14903;SDS011;7543;53.148;8.234;2022-12-10T06:38:48;26.80;;;10.90;;
14903;SDS011;7543;53.148;8.234;2022-12-10T06:41:17;28.40;;;11.00;;
14903;SDS011;7543;53.148;8.234;2022-12-10T06:43:47;23.93;;;10.70;;
14903;SDS011;7543;53.148;8.234;2022-12-10T06:46:16;21.80;;;10.83;;
14903;SDS011;7543;53.148;8.234;2022-12-10T06:48:46;25.27;;;11.37;;
14903;SDS011;7543;53.148;8.234;2022-12-10T06:51:14;24.43;;;10.40;;
14903;SDS011;7543;53.148;8.234;2022-12-10T06:53:45;23.60;;;10.37;;
14903;SDS011;7543;53.148;8.234;2022-12-10T06:56:14;26.80;;;11.37;;
14903;SDS011;7543;53.148;8.234;2022-12-10T06:58:44;24.33;;;11.27;;
14903;SDS011;7543;53.148;8.234;2022-12-10T07:01:13;28.50;;;11.53;;
14903;SDS011;7543;53.148;8.234;2022-12-10T07:03:42;23.47;;;11.10;;
14903;SDS011;7543;53.148;8.234;2022-12-10T07:06:11;24.57;;;11.07;;
14903;SDS011;7543;53.148;8.234;2022-12-10T07:08:39;27.10;;;11.37;;
14903;SDS011;7543;53.148;8.234;2022-12-10T07:11:10;31.53;;;11.77;;
14903;SDS011;7543;53.148;8.234;2022-12-10T07:13:39;29.37;;;11.47;;
14903;SDS011;7543;53.148;8.234;2022-12-10T07:16:11;28.43;;;12.00;;
14903;SDS011;7543;53.148;8.234;2022-12-10T07:18:40;33.10;;;11.67;;
14903;SDS011;7543;53.148;8.234;2022-12-10T07:21:12;24.93;;;12.07;;
14903;SDS011;7543;53.148;8.234;2022-12-10T07:23:41;26.33;;;11.20;;
14903;SDS011;7543;53.148;8.234;2022-12-10T07:26:11;26.77;;;10.57;;
14903;SDS011;7543;53.148;8.234;2022-12-10T07:28:39;25.60;;;10.53;;
14903;SDS011;7543;53.148;8.234;2022-12-10T07:31:08;26.00;;;11.13;;
14903;SDS011;7543;53.148;8.234;2022-12-10T07:33:36;27.47;;;12.13;;
14903;SDS011;7543;53.148;8.234;2022-12-10T07:36:05;32.03;;;11.50;;
14903;SDS011;7543;53.148;8.234;2022-12-10T07:38:34;28.03;;;10.57;;
14903;SDS011;7543;53.148;8.234;2022-12-10T07:41:04;28.03;;;11.87;;
14903;SDS011;7543;53.148;8.234;2022-12-10T07:43:37;27.47;;;11.43;;
14903;SDS011;7543;53.148;8.234;2022-12-10T07:46:06;26.30;;;11.63;;
14903;SDS011;7543;53.148;8.234;2022-12-10T07:48:36;25.17;;;11.70;;
14903;SDS011;7543;53.148;8.234;2022-12-10T07:51:06;25.07;;;11.43;;
14903;SDS011;7543;53.148;8.234;2022-12-10T07:53:34;23.50;;;10.97;;
14903;SDS011;7543;53.148;8.234;2022-12-10T07:56:03;21.30;;;9.53;;
14903;SDS011;7543;53.148;8.234;2022-12-10T07:58:32;24.90;;;10.77;;
14903;SDS011;7543;53.148;8.234;2022-12-10T08:01:06;26.63;;;11.20;;
14903;SDS011;7543;53.148;8.234;2022-12-10T08:03:35;30.63;;;11.43;;
14903;SDS011;7543;53.148;8.234;2022-12-10T08:06:04;27.30;;;11.83;;
14903;SDS011;7543;53.148;8.234;2022-12-10T08:08:34;29.30;;;10.60;;
14903;SDS011;7543;53.148;8.234;2022-12-10T08:11:03;27.03;;;10.83;;
14903;SDS011;7543;53.148;8.234;2022-12-10T08:13:32;29.20;;;12.50;;
14903;SDS011;7543;53.148;8.234;2022-12-10T08:16:01;30.93;;;11.30;;
14903;SDS011;7543;53.148;8.234;2022-12-10T08:18:32;21.57;;;9.10;;
14903;SDS011;7543;53.148;8.234;2022-12-10T08:21:02;26.10;;;11.77;;
14903;SDS011;7543;53.148;8.234;2022-12-10T08:23:31;23.73;;;10.30;;
14903;SDS011;7543;53.148;8.234;2022-12-10T08:26:01;26.37;;;10.53;;
14903;SDS011;7543;53.148;8.234;2022-12-10T08:28:30;27.70;;;10.67;;
14903;SDS011;7543;53.148;8.234;2022-12-10T08:30:59;29.47;;;10.80;;
14903;SDS011;7543;53.148;8.234;2022-12-10T08:33:27;23.17;;;10.90;;
14903;SDS011;7543;53.148;8.234;2022-12-10T08:35:58;30.93;;;11.20;;
14903;SDS011;7543;53.148;8.234;2022-12-10T08:38:27;26.17;;;10.87;;
14903;SDS011;7543;53.148;8.234;2022-12-10T08:40:57;27.00;;;11.37;;
14903;SDS011;7543;53.148;8.234;2022-12-10T08:43:25;25.07;;;11.10;;
14903;SDS011;7543;53.148;8.234;2022-12-10T08:45:53;25.93;;;8.70;;
14903;SDS011;7543;53.148;8.234;2022-12-10T08:48:22;19.27;;;9.10;;
14903;SDS011;7543;53.148;8.234;2022-12-10T08:50:50;25.73;;;11.00;;
14903;SDS011;7543;53.148;8.234;2022-12-10T08:53:20;23.63;;;10.43;;
14903;SDS011;7543;53.148;8.234;2022-12-10T08:55:49;22.97;;;10.93;;
14903;SDS011;7543;53.148;8.234;2022-12-10T08:58:20;27.90;;;9.80;;
14903;SDS011;7543;53.148;8.234;2022-12-10T09:00:48;27.07;;;11.73;;
14903;SDS011;7543;53.148;8.234;2022-12-10T09:03:17;24.77;;;10.07;;
14903;SDS011;7543;53.148;8.234;2022-12-10T09:05:45;21.20;;;10.73;;
14903;SDS011;7543;53.148;8.234;2022-12-10T09:08:14;22.17;;;9.07;;
14903;SDS011;7543;53.148;8.234;2022-12-10T09:10:43;27.27;;;10.30;;
14903;SDS011;7543;53.148;8.234;2022-12-10T09:13:11;19.00;;;9.13;;
14903;SDS011;7543;53.148;8.234;2022-12-10T09:15:40;26.33;;;9.63;;
14903;SDS011;7543;53.148;8.234;2022-12-10T09:18:08;32.30;;;10.33;;
14903;SDS011;7543;53.148;8.234;2022-12-10T09:20:36;20.47;;;10.10;;
14903;SDS011;7543;53.148;8.234;2022-12-10T09:23:04;22.17;;;9.57;;
14903;SDS011;7543;53.148;8.234;2022-12-10T09:25:32;25.43;;;10.20;;
14903;SDS011;7543;53.148;8.234;2022-12-10T09:28:02;19.80;;;8.97;;
14903;SDS011;7543;53.148;8.234;2022-12-10T09:30:30;25.73;;;10.67;;
14903;SDS011;7543;53.148;8.234;2022-12-10T09:32:58;22.57;;;9.70;;
14903;SDS011;7543;53.148;8.234;2022-12-10T09:35:26;20.67;;;10.00;;
14903;SDS011;7543;53.148;8.234;2022-12-10T09:37:55;26.00;;;11.03;;
14903;SDS011;7543;53.148;8.234;2022-12-10T09:40:24;19.90;;;9.27;;
14903;SDS011;7543;53.148;8.234;2022-12-10T09:42:58;17.70;;;9.40;;
14903;SDS011;7543;53.148;8.234;2022-12-10T09:45:32;23.70;;;10.03;;
14903;SDS011;7543;53.148;8.234;2022-12-10T09:48:05;22.87;;;9.43;;
14903;SDS011;7543;53.148;8.234;2022-12-10T09:50:44;21.57;;;9.40;;
14903;SDS011;7543;53.148;8.234;2022-12-10T09:53:16;21.93;;;9.33;;
14903;SDS011;7543;53.148;8.234;2022-12-10T09:55:47;25.77;;;9.07;;
14903;SDS011;7543;53.148;8.234;2022-12-10T09:58:18;27.23;;;10.37;;
14903;SDS011;7543;53.148;8.234;2022-12-10T10:00:49;25.43;;;9.50;;
14903;SDS011;7543;53.148;8.234;2022-12-10T10:03:18;20.53;;;8.20;;
14903;SDS011;7543;53.148;8.234;2022-12-10T10:05:48;19.67;;;9.43;;
14903;SDS011;7543;53.148;8.234;2022-12-10T10:08:20;21.10;;;10.53;;
14903;SDS011;7543;53.148;8.234;2022-12-10T10:10:51;21.53;;;9.83;;
14903;SDS011;7543;53.148;8.234;2022-12-10T10:13:24;19.10;;;9.40;;
14903;SDS011;7543;53.148;8.234;2022-12-10T10:15:56;25.07;;;9.60;;
14903;SDS011;7543;53.148;8.234;2022-12-10T10:18:32;22.77;;;10.50;;
14903;SDS011;7543;53.148;8.234;2022-12-10T10:21:03;19.13;;;9.20;;
14903;SDS011;7543;53.148;8.234;2022-12-10T10:23:32;21.30;;;9.60;;
14903;SDS011;7543;53.148;8.234;2022-12-10T10:26:01;21.77;;;9.43;;
14903;SDS011;7543;53.148;8.234;2022-12-10T10:28:31;22.40;;;10.17;;
14903;SDS011;7543;53.148;8.234;2022-12-10T10:30:59;30.33;;;11.30;;
14903;SDS011;7543;53.148;8.234;2022-12-10T10:33:27;18.67;;;9.50;;
14903;SDS011;7543;53.148;8.234;2022-12-10T10:35:56;22.77;;;9.43;;
14903;SDS011;7543;53.148;8.234;2022-12-10T10:38:26;25.13;;;9.97;;
14903;SDS011;7543;53.148;8.234;2022-12-10T10:40:55;25.87;;;9.83;;
14903;SDS011;7543;53.148;8.234;2022-12-10T10:43:25;23.20;;;8.67;;
14903;SDS011;7543;53.148;8.234;2022-12-10T10:45:56;22.77;;;9.87;;
14903;SDS011;7543;53.148;8.234;2022-12-10T10:48:26;20.97;;;9.27;;
14903;SDS011;7543;53.148;8.234;2022-12-10T10:50:57;19.50;;;9.60;;
14903;SDS011;7543;53.148;8.234;2022-12-10T10:53:39;19.33;;;9.17;;
14903;SDS011;7543;53.148;8.234;2022-12-10T10:56:10;21.10;;;9.57;;
14903;SDS011;7543;53.148;8.234;2022-12-10T10:58:50;24.23;;;9.23;;
14903;SDS011;7543;53.148;8.234;2022-12-10T11:01:23;26.53;;;9.47;;
14903;SDS011;7543;53.148;8.234;2022-12-10T11:03:53;19.17;;;9.20;;
14903;SDS011;7543;53.148;8.234;2022-12-10T11:06:23;26.57;;;10.27;;
14903;SDS011;7543;53.148;8.234;2022-12-10T11:08:54;21.13;;;9.57;;
14903;SDS011;7543;53.148;8.234;2022-12-10T11:11:29;19.30;;;9.30;;
14903;SDS011;7543;53.148;8.234;2022-12-10T11:14:12;21.20;;;9.83;;
14903;SDS011;7543;53.148;8.234;2022-12-10T11:16:43;21.30;;;9.30;;
14903;SDS011;7543;53.148;8.234;2022-12-10T11:19:16;27.10;;;9.57;;
14903;SDS011;7543;53.148;8.234;2022-12-10T11:21:47;27.70;;;10.20;;
14903;SDS011;7543;53.148;8.234;2022-12-10T11:24:17;23.50;;;11.40;;
14903;SDS011;7543;53.148;8.234;2022-12-10T11:26:52;23.67;;;9.33;;
14903;SDS011;7543;53.148;8.234;2022-12-10T11:32:17;22.20;;;9.30;;
14903;SDS011;7543;53.148;8.234;2022-12-10T11:34:56;21.17;;;9.40;;
14903;SDS011;7543;53.148;8.234;2022-12-10T11:37:31;21.97;;;9.30;;
14903;SDS011;7543;53.148;8.234;2022-12-10T11:40:06;17.87;;;8.00;;
14903;SDS011;7543;53.148;8.234;2022-12-10T11:42:55;17.60;;;8.83;;
14903;SDS011;7543;53.148;8.234;2022-12-10T11:45:33;18.20;;;8.30;;
14903;SDS011;7543;53.148;8.234;2022-12-10T11:48:14;19.23;;;9.60;;
14903;SDS011;7543;53.148;8.234;2022-12-10T11:50:48;22.50;;;8.67;;
14903;SDS011;7543;53.148;8.234;2022-12-10T11:53:27;20.30;;;8.73;;
14903;SDS011;7543;53.148;8.234;2022-12-10T11:56:08;16.03;;;8.20;;
14903;SDS011;7543;53.148;8.234;2022-12-10T11:58:48;19.93;;;8.93;;
14903;SDS011;7543;53.148;8.234;2022-12-10T12:01:28;18.40;;;8.00;;
14903;SDS011;7543;53.148;8.234;2022-12-10T12:04:16;18.03;;;8.90;;
14903;SDS011;7543;53.148;8.234;2022-12-10T12:07:03;18.00;;;7.73;;
14903;SDS011;7543;53.148;8.234;2022-12-10T12:09:42;18.23;;;8.80;;
14903;SDS011;7543;53.148;8.234;2022-12-10T12:12:21;18.60;;;9.25;;
14903;SDS011;7543;53.148;8.234;2022-12-10T12:14:58;19.87;;;8.50;;
14903;SDS011;7543;53.148;8.234;2022-12-10T12:17:28;16.13;;;7.83;;
14903;SDS011;7543;53.148;8.234;2022-12-10T12:20:00;21.30;;;8.70;;
14903;SDS011;7543;53.148;8.234;2022-12-10T12:22:31;17.13;;;7.50;;
14903;SDS011;7543;53.148;8.234;2022-12-10T12:25:03;19.37;;;9.27;;
14903;SDS011;7543;53.148;8.234;2022-12-10T12:27:35;18.07;;;8.27;;
14903;SDS011;7543;53.148;8.234;2022-12-10T12:30:10;21.97;;;8.83;;
14903;SDS011;7543;53.148;8.234;2022-12-10T12:32:45;18.80;;;8.70;;
14903;SDS011;7543;53.148;8.234;2022-12-10T12:35:19;20.20;;;9.63;;
14903;SDS011;7543;53.148;8.234;2022-12-10T12:37:52;14.43;;;7.83;;
14903;SDS011;7543;53.148;8.234;2022-12-10T12:40:25;20.07;;;9.33;;
14903;SDS011;7543;53.148;8.234;2022-12-10T12:42:57;23.60;;;8.87;;
14903;SDS011;7543;53.148;8.234;2022-12-10T12:45:34;25.23;;;9.27;;
14903;SDS011;7543;53.148;8.234;2022-12-10T12:48:10;15.73;;;8.27;;
14903;SDS011;7543;53.148;8.234;2022-12-10T12:50:46;18.90;;;8.90;;
14903;SDS011;7543;53.148;8.234;2022-12-10T12:53:17;19.20;;;8.27;;
14903;SDS011;7543;53.148;8.234;2022-12-10T12:55:50;19.90;;;9.03;;
14903;SDS011;7543;53.148;8.234;2022-12-10T12:58:26;17.43;;;8.20;;
14903;SDS011;7543;53.148;8.234;2022-12-10T13:01:08;20.17;;;9.40;;
14903;SDS011;7543;53.148;8.234;2022-12-10T13:03:42;14.73;;;7.73;;
14903;SDS011;7543;53.148;8.234;2022-12-10T13:06:14;19.10;;;8.77;;
14903;SDS011;7543;53.148;8.234;2022-12-10T13:08:45;17.63;;;8.97;;
14903;SDS011;7543;53.148;8.234;2022-12-10T13:16:59;16.57;;;8.47;;
14903;SDS011;7543;53.148;8.234;2022-12-10T13:19:42;17.37;;;8.07;;
14903;SDS011;7543;53.148;8.234;2022-12-10T13:22:12;18.67;;;8.57;;
14903;SDS011;7543;53.148;8.234;2022-12-10T13:25:12;16.60;;;8.10;;
14903;SDS011;7543;53.148;8.234;2022-12-10T13:27:42;20.13;;;9.53;;
14903;SDS011;7543;53.148;8.234;2022-12-10T13:30:25;20.37;;;9.23;;
14903;SDS011;7543;53.148;8.234;2022-12-10T13:33:05;16.97;;;8.10;;
14903;SDS011;7543;53.148;8.234;2022-12-10T13:35:51;18.93;;;8.33;;
14903;SDS011;7543;53.148;8.234;2022-12-10T13:38:26;22.20;;;9.10;;
14903;SDS011;7543;53.148;8.234;2022-12-10T13:41:02;18.07;;;9.07;;
14903;SDS011;7543;53.148;8.234;2022-12-10T13:43:54;16.23;;;8.37;;
14903;SDS011;7543;53.148;8.234;2022-12-10T13:46:51;15.90;;;7.90;;
14903;SDS011;7543;53.148;8.234;2022-12-10T13:49:22;19.20;;;8.83;;
14903;SDS011;7543;53.148;8.234;2022-12-10T13:51:54;19.93;;;9.03;;
14903;SDS011;7543;53.148;8.234;2022-12-10T13:54:48;22.33;;;10.23;;
14903;SDS011;7543;53.148;8.234;2022-12-10T13:57:30;15.87;;;8.83;;
14903;SDS011;7543;53.148;8.234;2022-12-10T14:00:08;18.73;;;9.00;;
14903;SDS011;7543;53.148;8.234;2022-12-10T14:02:45;18.13;;;8.50;;
14903;SDS011;7543;53.148;8.234;2022-12-10T14:05:42;21.10;;;8.93;;
14903;SDS011;7543;53.148;8.234;2022-12-10T14:08:20;20.70;;;9.30;;
14903;SDS011;7543;53.148;8.234;2022-12-10T14:10:52;17.50;;;7.93;;
14903;SDS011;7543;53.148;8.234;2022-12-10T14:13:21;22.43;;;8.90;;
14903;SDS011;7543;53.148;8.234;2022-12-10T14:15:55;21.97;;;8.80;;
14903;SDS011;7543;53.148;8.234;2022-12-10T14:18:24;21.47;;;9.07;;
14903;SDS011;7543;53.148;8.234;2022-12-10T14:20:55;18.23;;;9.60;;
14903;SDS011;7543;53.148;8.234;2022-12-10T14:23:24;24.03;;;8.53;;
14903;SDS011;7543;53.148;8.234;2022-12-10T14:26:12;20.07;;;9.33;;
14903;SDS011;7543;53.148;8.234;2022-12-10T14:28:42;21.00;;;8.67;;
14903;SDS011;7543;53.148;8.234;2022-12-10T14:31:16;20.30;;;9.77;;
14903;SDS011;7543;53.148;8.234;2022-12-10T14:33:46;18.70;;;8.50;;
14903;SDS011;7543;53.148;8.234;2022-12-10T14:36:16;18.70;;;7.90;;
14903;SDS011;7543;53.148;8.234;2022-12-10T14:38:47;21.57;;;8.97;;
14903;SDS011;7543;53.148;8.234;2022-12-10T14:41:18;20.43;;;8.67;;
14903;SDS011;7543;53.148;8.234;2022-12-10T14:43:48;16.87;;;7.70;;
14903;SDS011;7543;53.148;8.234;2022-12-10T14:46:18;21.40;;;9.17;;
14903;SDS011;7543;53.148;8.234;2022-12-10T14:48:49;21.90;;;9.53;;
14903;SDS011;7543;53.148;8.234;2022-12-10T14:51:19;22.57;;;9.47;;
14903;SDS011;7543;53.148;8.234;2022-12-10T14:53:50;24.17;;;11.00;;
14903;SDS011;7543;53.148;8.234;2022-12-10T14:56:22;22.10;;;10.50;;
14903;SDS011;7543;53.148;8.234;2022-12-10T14:58:55;24.57;;;10.10;;
14903;SDS011;7543;53.148;8.234;2022-12-10T15:01:29;18.00;;;8.17;;
14903;SDS011;7543;53.148;8.234;2022-12-10T15:03:59;22.07;;;9.63;;
14903;SDS011;7543;53.148;8.234;2022-12-10T15:06:32;21.43;;;9.60;;
14903;SDS011;7543;53.148;8.234;2022-12-10T15:09:02;19.60;;;10.37;;
14903;SDS011;7543;53.148;8.234;2022-12-10T15:11:32;19.63;;;8.67;;
14903;SDS011;7543;53.148;8.234;2022-12-10T15:14:01;18.97;;;8.47;;
14903;SDS011;7543;53.148;8.234;2022-12-10T15:16:31;21.13;;;8.87;;
14903;SDS011;7543;53.148;8.234;2022-12-10T15:19:07;21.27;;;9.30;;